sensor_id;sensor_type;location;lat;lon;timestamp;P1;durP1;ratioP1;P2;durP2;ratioP2
18503;SDS011;9381;54.244;10.074;2023-06-10T00:01:12;10.43;;;4.75;;
18503;SDS011;9381;54.244;10.074;2023-06-10T00:06:12;8.30;;;4.10;;
18503;SDS011;9381;54.244;10.074;2023-06-10T00:11:13;12.30;;;4.73;;
18503;SDS011;9381;54.244;10.074;2023-06-10T00:16:13;8.67;;;4.10;;
18503;SDS011;9381;54.244;10.074;2023-06-10T00:21:13;10.48;;;4.93;;
18503;SDS011;9381;54.244;10.074;2023-06-10T00:26:14;10.20;;;3.70;;
18503;SDS011;9381;54.244;10.074;2023-06-10T00:31:15;8.93;;;4.27;;
18503;SDS011;9381;54.244;10.074;2023-06-10T00:36:16;12.73;;;4.20;;
18503;SDS011;9381;54.244;10.074;2023-06-10T00:41:16;10.37;;;4.57;;
18503;SDS011;9381;54.244;10.074;2023-06-10T00:46:16;13.15;;;4.30;;
18503;SDS011;9381;54.244;10.074;2023-06-10T00:51:18;10.80;;;4.10;;
18503;SDS011;9381;54.244;10.074;2023-06-10T00:56:19;10.97;;;4.17;;
18503;SDS011;9381;54.244;10.074;2023-06-10T01:01:20;10.03;;;3.70;;
18503;SDS011;9381;54.244;10.074;2023-06-10T01:06:37;9.73;;;4.27;;
18503;SDS011;9381;54.244;10.074;2023-06-10T01:12:05;11.37;;;3.90;;
18503;SDS011;9381;54.244;10.074;2023-06-10T01:17:11;9.67;;;3.70;;
18503;SDS011;9381;54.244;10.074;2023-06-10T01:22:12;10.57;;;3.60;;
18503;SDS011;9381;54.244;10.074;2023-06-10T01:27:16;10.37;;;3.47;;
18503;SDS011;9381;54.244;10.074;2023-06-10T01:32:27;10.83;;;3.60;;
18503;SDS011;9381;54.244;10.074;2023-06-10T01:37:32;5.33;;;2.80;;
18503;SDS011;9381;54.244;10.074;2023-06-10T01:42:33;8.47;;;3.73;;
18503;SDS011;9381;54.244;10.074;2023-06-10T01:47:34;8.23;;;3.33;;
18503;SDS011;9381;54.244;10.074;2023-06-10T01:52:34;7.03;;;3.70;;
18503;SDS011;9381;54.244;10.074;2023-06-10T01:57:34;8.27;;;3.37;;
18503;SDS011;9381;54.244;10.074;2023-06-10T02:02:35;11.63;;;3.40;;
18503;SDS011;9381;54.244;10.074;2023-06-10T02:07:35;8.47;;;3.40;;
18503;SDS011;9381;54.244;10.074;2023-06-10T02:12:36;5.63;;;3.00;;
18503;SDS011;9381;54.244;10.074;2023-06-10T02:17:36;11.50;;;3.30;;
18503;SDS011;9381;54.244;10.074;2023-06-10T02:22:37;7.20;;;2.80;;
18503;SDS011;9381;54.244;10.074;2023-06-10T02:27:37;7.57;;;3.00;;
18503;SDS011;9381;54.244;10.074;2023-06-10T02:32:38;7.60;;;3.03;;
18503;SDS011;9381;54.244;10.074;2023-06-10T02:37:38;9.73;;;2.70;;
18503;SDS011;9381;54.244;10.074;2023-06-10T02:42:38;7.00;;;2.87;;
18503;SDS011;9381;54.244;10.074;2023-06-10T02:47:39;11.60;;;3.20;;
18503;SDS011;9381;54.244;10.074;2023-06-10T02:52:40;9.07;;;3.17;;
18503;SDS011;9381;54.244;10.074;2023-06-10T02:57:40;7.93;;;2.77;;
18503;SDS011;9381;54.244;10.074;2023-06-10T03:02:40;5.57;;;2.90;;
18503;SDS011;9381;54.244;10.074;2023-06-10T03:07:41;10.00;;;3.03;;
18503;SDS011;9381;54.244;10.074;2023-06-10T03:12:41;8.37;;;2.60;;
18503;SDS011;9381;54.244;10.074;2023-06-10T03:17:41;8.82;;;2.88;;
18503;SDS011;9381;54.244;10.074;2023-06-10T03:22:42;7.88;;;2.40;;
18503;SDS011;9381;54.244;10.074;2023-06-10T03:27:42;8.50;;;2.50;;
18503;SDS011;9381;54.244;10.074;2023-06-10T03:32:43;10.97;;;2.67;;
18503;SDS011;9381;54.244;10.074;2023-06-10T03:37:43;10.10;;;2.53;;
18503;SDS011;9381;54.244;10.074;2023-06-10T03:42:43;5.97;;;2.23;;
18503;SDS011;9381;54.244;10.074;2023-06-10T03:47:44;7.70;;;2.67;;
18503;SDS011;9381;54.244;10.074;2023-06-10T03:52:45;8.53;;;3.13;;
18503;SDS011;9381;54.244;10.074;2023-06-10T03:57:47;6.30;;;2.30;;
18503;SDS011;9381;54.244;10.074;2023-06-10T04:02:48;10.07;;;2.60;;
18503;SDS011;9381;54.244;10.074;2023-06-10T04:07:51;11.30;;;2.93;;
18503;SDS011;9381;54.244;10.074;2023-06-10T04:12:51;9.43;;;2.63;;
18503;SDS011;9381;54.244;10.074;2023-06-10T04:17:52;7.30;;;2.90;;
18503;SDS011;9381;54.244;10.074;2023-06-10T04:22:52;7.47;;;2.67;;
18503;SDS011;9381;54.244;10.074;2023-06-10T04:27:53;8.68;;;3.00;;
18503;SDS011;9381;54.244;10.074;2023-06-10T04:32:53;13.13;;;2.70;;
18503;SDS011;9381;54.244;10.074;2023-06-10T04:37:54;9.33;;;2.63;;
18503;SDS011;9381;54.244;10.074;2023-06-10T04:42:54;10.50;;;2.63;;
18503;SDS011;9381;54.244;10.074;2023-06-10T04:47:54;6.70;;;2.40;;
18503;SDS011;9381;54.244;10.074;2023-06-10T04:52:55;9.63;;;2.43;;
18503;SDS011;9381;54.244;10.074;2023-06-10T04:57:59;10.40;;;2.30;;
18503;SDS011;9381;54.244;10.074;2023-06-10T05:02:59;8.93;;;2.10;;
18503;SDS011;9381;54.244;10.074;2023-06-10T05:07:59;8.37;;;2.50;;
18503;SDS011;9381;54.244;10.074;2023-06-10T05:13:00;9.17;;;2.67;;
18503;SDS011;9381;54.244;10.074;2023-06-10T05:18:00;10.30;;;2.53;;
18503;SDS011;9381;54.244;10.074;2023-06-10T05:23:02;9.23;;;2.70;;
18503;SDS011;9381;54.244;10.074;2023-06-10T05:28:03;6.00;;;2.30;;
18503;SDS011;9381;54.244;10.074;2023-06-10T05:33:04;10.77;;;2.87;;
18503;SDS011;9381;54.244;10.074;2023-06-10T05:38:05;14.07;;;3.00;;
18503;SDS011;9381;54.244;10.074;2023-06-10T05:43:05;7.33;;;2.37;;
18503;SDS011;9381;54.244;10.074;2023-06-10T05:48:05;9.07;;;2.50;;
18503;SDS011;9381;54.244;10.074;2023-06-10T05:53:06;10.57;;;2.57;;
18503;SDS011;9381;54.244;10.074;2023-06-10T05:58:08;7.93;;;2.67;;
18503;SDS011;9381;54.244;10.074;2023-06-10T06:03:08;12.53;;;3.23;;
18503;SDS011;9381;54.244;10.074;2023-06-10T06:08:09;12.43;;;3.30;;
18503;SDS011;9381;54.244;10.074;2023-06-10T06:13:10;11.40;;;3.00;;
18503;SDS011;9381;54.244;10.074;2023-06-10T06:18:10;9.60;;;2.60;;
18503;SDS011;9381;54.244;10.074;2023-06-10T06:23:11;8.57;;;2.63;;
18503;SDS011;9381;54.244;10.074;2023-06-10T06:28:11;5.70;;;2.47;;
18503;SDS011;9381;54.244;10.074;2023-06-10T06:33:13;11.70;;;2.43;;
18503;SDS011;9381;54.244;10.074;2023-06-10T06:38:13;7.83;;;2.90;;
18503;SDS011;9381;54.244;10.074;2023-06-10T06:43:13;7.27;;;2.47;;
18503;SDS011;9381;54.244;10.074;2023-06-10T06:48:14;10.93;;;2.77;;
18503;SDS011;9381;54.244;10.074;2023-06-10T06:53:14;8.77;;;2.93;;
18503;SDS011;9381;54.244;10.074;2023-06-10T06:58:14;11.53;;;3.77;;
18503;SDS011;9381;54.244;10.074;2023-06-10T07:03:15;13.10;;;3.10;;
18503;SDS011;9381;54.244;10.074;2023-06-10T07:08:15;10.40;;;3.17;;
18503;SDS011;9381;54.244;10.074;2023-06-10T07:13:16;10.63;;;2.87;;
18503;SDS011;9381;54.244;10.074;2023-06-10T07:18:16;10.83;;;3.13;;
18503;SDS011;9381;54.244;10.074;2023-06-10T07:23:17;14.03;;;3.20;;
18503;SDS011;9381;54.244;10.074;2023-06-10T07:28:17;6.50;;;2.70;;
18503;SDS011;9381;54.244;10.074;2023-06-10T07:33:18;9.87;;;3.20;;
18503;SDS011;9381;54.244;10.074;2023-06-10T07:38:18;10.83;;;3.20;;
18503;SDS011;9381;54.244;10.074;2023-06-10T07:43:18;8.63;;;3.27;;
18503;SDS011;9381;54.244;10.074;2023-06-10T07:48:19;6.67;;;3.00;;
18503;SDS011;9381;54.244;10.074;2023-06-10T07:53:19;16.10;;;3.53;;
18503;SDS011;9381;54.244;10.074;2023-06-10T07:58:19;8.37;;;2.80;;
18503;SDS011;9381;54.244;10.074;2023-06-10T08:03:20;8.17;;;3.10;;
18503;SDS011;9381;54.244;10.074;2023-06-10T08:08:20;14.47;;;3.93;;
18503;SDS011;9381;54.244;10.074;2023-06-10T08:13:21;11.98;;;3.63;;
18503;SDS011;9381;54.244;10.074;2023-06-10T08:18:21;9.48;;;3.78;;
18503;SDS011;9381;54.244;10.074;2023-06-10T08:23:22;13.87;;;3.60;;
18503;SDS011;9381;54.244;10.074;2023-06-10T08:28:23;10.07;;;2.90;;
18503;SDS011;9381;54.244;10.074;2023-06-10T08:33:23;10.03;;;3.60;;
18503;SDS011;9381;54.244;10.074;2023-06-10T08:38:23;8.75;;;3.53;;
18503;SDS011;9381;54.244;10.074;2023-06-10T08:43:41;11.23;;;3.90;;
18503;SDS011;9381;54.244;10.074;2023-06-10T08:48:45;11.90;;;3.30;;
18503;SDS011;9381;54.244;10.074;2023-06-10T08:54:02;12.00;;;4.47;;
18503;SDS011;9381;54.244;10.074;2023-06-10T08:59:10;10.70;;;3.53;;
18503;SDS011;9381;54.244;10.074;2023-06-10T09:04:11;7.93;;;2.87;;
18503;SDS011;9381;54.244;10.074;2023-06-10T09:09:14;8.60;;;3.13;;
18503;SDS011;9381;54.244;10.074;2023-06-10T09:14:14;12.33;;;3.87;;
18503;SDS011;9381;54.244;10.074;2023-06-10T09:19:16;9.60;;;3.00;;
18503;SDS011;9381;54.244;10.074;2023-06-10T09:24:17;8.73;;;3.53;;
18503;SDS011;9381;54.244;10.074;2023-06-10T09:29:18;13.20;;;3.60;;
18503;SDS011;9381;54.244;10.074;2023-06-10T09:34:18;10.55;;;3.20;;
18503;SDS011;9381;54.244;10.074;2023-06-10T09:39:19;10.77;;;3.33;;
18503;SDS011;9381;54.244;10.074;2023-06-10T09:44:20;13.93;;;3.90;;
18503;SDS011;9381;54.244;10.074;2023-06-10T09:49:21;11.13;;;3.07;;
18503;SDS011;9381;54.244;10.074;2023-06-10T09:54:22;12.33;;;3.10;;
18503;SDS011;9381;54.244;10.074;2023-06-10T09:59:28;10.63;;;3.17;;
18503;SDS011;9381;54.244;10.074;2023-06-10T10:04:32;10.10;;;3.20;;
18503;SDS011;9381;54.244;10.074;2023-06-10T10:09:35;7.23;;;3.03;;
18503;SDS011;9381;54.244;10.074;2023-06-10T10:14:37;10.03;;;2.90;;
18503;SDS011;9381;54.244;10.074;2023-06-10T10:19:40;8.53;;;3.50;;
18503;SDS011;9381;54.244;10.074;2023-06-10T10:24:50;9.23;;;3.60;;
18503;SDS011;9381;54.244;10.074;2023-06-10T10:29:53;11.43;;;3.57;;
18503;SDS011;9381;54.244;10.074;2023-06-10T10:35:16;10.40;;;3.10;;
18503;SDS011;9381;54.244;10.074;2023-06-10T10:40:18;10.53;;;3.03;;
18503;SDS011;9381;54.244;10.074;2023-06-10T10:45:21;8.23;;;3.03;;
18503;SDS011;9381;54.244;10.074;2023-06-10T10:50:22;8.47;;;2.80;;
18503;SDS011;9381;54.244;10.074;2023-06-10T10:55:23;12.23;;;3.37;;
18503;SDS011;9381;54.244;10.074;2023-06-10T11:00:33;11.37;;;3.43;;
18503;SDS011;9381;54.244;10.074;2023-06-10T11:05:36;14.70;;;3.33;;
18503;SDS011;9381;54.244;10.074;2023-06-10T11:10:39;8.83;;;2.70;;
18503;SDS011;9381;54.244;10.074;2023-06-10T11:15:44;7.37;;;3.00;;
18503;SDS011;9381;54.244;10.074;2023-06-10T11:25:50;10.03;;;2.63;;
18503;SDS011;9381;54.244;10.074;2023-06-10T11:30:56;9.13;;;3.50;;
18503;SDS011;9381;54.244;10.074;2023-06-10T11:35:57;10.67;;;3.00;;
18503;SDS011;9381;54.244;10.074;2023-06-10T11:40:58;13.67;;;3.27;;
18503;SDS011;9381;54.244;10.074;2023-06-10T11:45:59;7.90;;;3.07;;
18503;SDS011;9381;54.244;10.074;2023-06-10T11:51:00;7.07;;;3.20;;
18503;SDS011;9381;54.244;10.074;2023-06-10T11:56:00;9.20;;;3.10;;
18503;SDS011;9381;54.244;10.074;2023-06-10T12:01:01;9.13;;;2.80;;
18503;SDS011;9381;54.244;10.074;2023-06-10T12:06:04;12.83;;;3.00;;
18503;SDS011;9381;54.244;10.074;2023-06-10T12:11:06;13.07;;;3.33;;
18503;SDS011;9381;54.244;10.074;2023-06-10T12:16:07;10.00;;;3.00;;
18503;SDS011;9381;54.244;10.074;2023-06-10T12:26:18;9.87;;;3.17;;
18503;SDS011;9381;54.244;10.074;2023-06-10T12:31:19;7.77;;;2.80;;
18503;SDS011;9381;54.244;10.074;2023-06-10T12:36:19;9.67;;;2.70;;
18503;SDS011;9381;54.244;10.074;2023-06-10T12:41:22;10.23;;;2.73;;
18503;SDS011;9381;54.244;10.074;2023-06-10T12:46:22;11.57;;;3.10;;
18503;SDS011;9381;54.244;10.074;2023-06-10T12:51:22;8.87;;;2.77;;
18503;SDS011;9381;54.244;10.074;2023-06-10T12:56:23;10.63;;;2.90;;
18503;SDS011;9381;54.244;10.074;2023-06-10T13:01:24;7.83;;;3.20;;
18503;SDS011;9381;54.244;10.074;2023-06-10T13:06:24;12.57;;;3.70;;
18503;SDS011;9381;54.244;10.074;2023-06-10T13:11:24;8.17;;;2.93;;
18503;SDS011;9381;54.244;10.074;2023-06-10T13:16:25;9.73;;;2.70;;
18503;SDS011;9381;54.244;10.074;2023-06-10T13:21:26;7.27;;;3.10;;
18503;SDS011;9381;54.244;10.074;2023-06-10T13:26:26;8.20;;;3.03;;
18503;SDS011;9381;54.244;10.074;2023-06-10T13:31:30;11.77;;;3.50;;
18503;SDS011;9381;54.244;10.074;2023-06-10T13:36:36;9.10;;;2.70;;
18503;SDS011;9381;54.244;10.074;2023-06-10T13:41:37;7.03;;;3.23;;
18503;SDS011;9381;54.244;10.074;2023-06-10T13:46:37;11.37;;;3.30;;
18503;SDS011;9381;54.244;10.074;2023-06-10T13:51:37;7.63;;;3.07;;
18503;SDS011;9381;54.244;10.074;2023-06-10T13:56:38;8.77;;;2.97;;
18503;SDS011;9381;54.244;10.074;2023-06-10T14:01:38;10.57;;;3.10;;
18503;SDS011;9381;54.244;10.074;2023-06-10T14:06:40;7.63;;;3.10;;
18503;SDS011;9381;54.244;10.074;2023-06-10T14:11:41;9.03;;;3.27;;
18503;SDS011;9381;54.244;10.074;2023-06-10T14:16:41;8.27;;;3.40;;
18503;SDS011;9381;54.244;10.074;2023-06-10T14:21:42;8.70;;;3.40;;
18503;SDS011;9381;54.244;10.074;2023-06-10T14:26:42;8.10;;;3.27;;
18503;SDS011;9381;54.244;10.074;2023-06-10T14:31:42;7.07;;;2.83;;
18503;SDS011;9381;54.244;10.074;2023-06-10T14:36:43;7.27;;;2.80;;
18503;SDS011;9381;54.244;10.074;2023-06-10T14:41:43;13.50;;;3.17;;
18503;SDS011;9381;54.244;10.074;2023-06-10T14:46:43;13.37;;;3.43;;
18503;SDS011;9381;54.244;10.074;2023-06-10T14:51:44;7.53;;;2.70;;
18503;SDS011;9381;54.244;10.074;2023-06-10T14:56:44;12.43;;;3.13;;
18503;SDS011;9381;54.244;10.074;2023-06-10T15:01:45;11.47;;;3.60;;
18503;SDS011;9381;54.244;10.074;2023-06-10T15:06:45;11.27;;;3.57;;
18503;SDS011;9381;54.244;10.074;2023-06-10T15:11:48;10.43;;;3.03;;
18503;SDS011;9381;54.244;10.074;2023-06-10T15:16:49;8.10;;;2.97;;
18503;SDS011;9381;54.244;10.074;2023-06-10T15:21:49;13.23;;;6.93;;
18503;SDS011;9381;54.244;10.074;2023-06-10T15:26:49;11.87;;;4.57;;
18503;SDS011;9381;54.244;10.074;2023-06-10T15:31:50;9.90;;;3.10;;
18503;SDS011;9381;54.244;10.074;2023-06-10T15:36:50;8.83;;;3.50;;
18503;SDS011;9381;54.244;10.074;2023-06-10T15:41:51;6.97;;;3.10;;
18503;SDS011;9381;54.244;10.074;2023-06-10T15:46:51;9.13;;;3.40;;
18503;SDS011;9381;54.244;10.074;2023-06-10T15:51:51;8.60;;;3.20;;
18503;SDS011;9381;54.244;10.074;2023-06-10T15:56:52;10.70;;;3.50;;
18503;SDS011;9381;54.244;10.074;2023-06-10T16:01:52;8.80;;;3.17;;
18503;SDS011;9381;54.244;10.074;2023-06-10T16:06:52;10.30;;;3.40;;
18503;SDS011;9381;54.244;10.074;2023-06-10T16:11:54;9.10;;;3.50;;
18503;SDS011;9381;54.244;10.074;2023-06-10T16:16:54;11.13;;;3.47;;
18503;SDS011;9381;54.244;10.074;2023-06-10T16:21:58;10.27;;;3.20;;
18503;SDS011;9381;54.244;10.074;2023-06-10T16:26:58;13.30;;;3.53;;
18503;SDS011;9381;54.244;10.074;2023-06-10T16:31:58;9.47;;;3.23;;
18503;SDS011;9381;54.244;10.074;2023-06-10T16:36:59;11.00;;;3.17;;
18503;SDS011;9381;54.244;10.074;2023-06-10T16:41:59;9.80;;;3.30;;
18503;SDS011;9381;54.244;10.074;2023-06-10T16:47:00;9.93;;;3.80;;
18503;SDS011;9381;54.244;10.074;2023-06-10T16:52:00;12.23;;;3.50;;
18503;SDS011;9381;54.244;10.074;2023-06-10T16:57:00;9.60;;;3.77;;
18503;SDS011;9381;54.244;10.074;2023-06-10T17:02:01;14.67;;;3.43;;
18503;SDS011;9381;54.244;10.074;2023-06-10T17:07:01;12.70;;;3.63;;
18503;SDS011;9381;54.244;10.074;2023-06-10T17:12:02;6.95;;;2.60;;
18503;SDS011;9381;54.244;10.074;2023-06-10T17:17:02;8.40;;;2.57;;
18503;SDS011;9381;54.244;10.074;2023-06-10T17:22:03;8.40;;;3.07;;
18503;SDS011;9381;54.244;10.074;2023-06-10T17:27:04;14.07;;;3.20;;
18503;SDS011;9381;54.244;10.074;2023-06-10T17:32:05;5.90;;;3.00;;
18503;SDS011;9381;54.244;10.074;2023-06-10T17:37:06;12.50;;;2.90;;
18503;SDS011;9381;54.244;10.074;2023-06-10T17:42:06;7.53;;;3.28;;
18503;SDS011;9381;54.244;10.074;2023-06-10T17:47:07;9.67;;;3.07;;
18503;SDS011;9381;54.244;10.074;2023-06-10T17:52:08;9.47;;;3.10;;
18503;SDS011;9381;54.244;10.074;2023-06-10T17:57:08;11.07;;;3.23;;
18503;SDS011;9381;54.244;10.074;2023-06-10T18:02:09;14.43;;;3.17;;
18503;SDS011;9381;54.244;10.074;2023-06-10T18:07:09;12.90;;;3.03;;
18503;SDS011;9381;54.244;10.074;2023-06-10T18:12:10;12.07;;;2.60;;
18503;SDS011;9381;54.244;10.074;2023-06-10T18:17:11;12.80;;;3.00;;
18503;SDS011;9381;54.244;10.074;2023-06-10T18:22:11;10.77;;;2.60;;
18503;SDS011;9381;54.244;10.074;2023-06-10T18:27:12;13.33;;;3.10;;
18503;SDS011;9381;54.244;10.074;2023-06-10T18:32:12;7.53;;;2.53;;
18503;SDS011;9381;54.244;10.074;2023-06-10T18:37:13;13.87;;;2.70;;
18503;SDS011;9381;54.244;10.074;2023-06-10T18:42:13;6.70;;;2.30;;
18503;SDS011;9381;54.244;10.074;2023-06-10T18:47:14;8.63;;;3.17;;
18503;SDS011;9381;54.244;10.074;2023-06-10T18:52:14;7.93;;;3.20;;
18503;SDS011;9381;54.244;10.074;2023-06-10T18:57:15;5.73;;;2.20;;
18503;SDS011;9381;54.244;10.074;2023-06-10T19:02:15;8.60;;;2.60;;
18503;SDS011;9381;54.244;10.074;2023-06-10T19:07:19;5.57;;;2.20;;
18503;SDS011;9381;54.244;10.074;2023-06-10T19:12:19;4.77;;;2.30;;
18503;SDS011;9381;54.244;10.074;2023-06-10T19:17:21;6.43;;;2.57;;
18503;SDS011;9381;54.244;10.074;2023-06-10T19:22:21;7.37;;;2.30;;
18503;SDS011;9381;54.244;10.074;2023-06-10T19:27:21;9.10;;;2.43;;
18503;SDS011;9381;54.244;10.074;2023-06-10T19:32:23;7.73;;;2.40;;
18503;SDS011;9381;54.244;10.074;2023-06-10T19:37:24;4.63;;;2.43;;
18503;SDS011;9381;54.244;10.074;2023-06-10T19:42:24;5.67;;;2.43;;
18503;SDS011;9381;54.244;10.074;2023-06-10T19:47:24;7.93;;;2.60;;
18503;SDS011;9381;54.244;10.074;2023-06-10T19:52:25;7.20;;;3.03;;
18503;SDS011;9381;54.244;10.074;2023-06-10T19:57:26;8.37;;;2.40;;
18503;SDS011;9381;54.244;10.074;2023-06-10T20:02:26;5.80;;;2.40;;
18503;SDS011;9381;54.244;10.074;2023-06-10T20:07:27;8.27;;;2.43;;
18503;SDS011;9381;54.244;10.074;2023-06-10T20:12:30;7.87;;;2.13;;
18503;SDS011;9381;54.244;10.074;2023-06-10T20:17:31;9.50;;;2.27;;
18503;SDS011;9381;54.244;10.074;2023-06-10T20:22:31;5.57;;;2.30;;
18503;SDS011;9381;54.244;10.074;2023-06-10T20:27:32;11.27;;;2.72;;
18503;SDS011;9381;54.244;10.074;2023-06-10T20:32:32;6.30;;;2.07;;
18503;SDS011;9381;54.244;10.074;2023-06-10T20:37:32;7.20;;;2.50;;
18503;SDS011;9381;54.244;10.074;2023-06-10T20:42:33;4.43;;;2.07;;
18503;SDS011;9381;54.244;10.074;2023-06-10T20:47:34;4.87;;;1.87;;
18503;SDS011;9381;54.244;10.074;2023-06-10T20:52:34;7.17;;;1.93;;
18503;SDS011;9381;54.244;10.074;2023-06-10T20:57:35;6.80;;;2.13;;
18503;SDS011;9381;54.244;10.074;2023-06-10T21:02:35;7.10;;;2.03;;
18503;SDS011;9381;54.244;10.074;2023-06-10T21:07:35;14.40;;;2.27;;
18503;SDS011;9381;54.244;10.074;2023-06-10T21:12:36;5.57;;;2.20;;
18503;SDS011;9381;54.244;10.074;2023-06-10T21:17:37;6.70;;;2.10;;
18503;SDS011;9381;54.244;10.074;2023-06-10T21:22:37;5.17;;;2.10;;
18503;SDS011;9381;54.244;10.074;2023-06-10T21:27:38;6.97;;;2.30;;
18503;SDS011;9381;54.244;10.074;2023-06-10T21:32:39;6.33;;;1.87;;
18503;SDS011;9381;54.244;10.074;2023-06-10T21:37:39;7.00;;;1.80;;
18503;SDS011;9381;54.244;10.074;2023-06-10T21:42:39;5.30;;;2.20;;
18503;SDS011;9381;54.244;10.074;2023-06-10T21:47:43;6.00;;;2.60;;
18503;SDS011;9381;54.244;10.074;2023-06-10T21:52:44;8.73;;;2.17;;
18503;SDS011;9381;54.244;10.074;2023-06-10T21:57:44;4.10;;;1.80;;
18503;SDS011;9381;54.244;10.074;2023-06-10T22:02:44;6.40;;;2.70;;
18503;SDS011;9381;54.244;10.074;2023-06-10T22:07:45;6.70;;;1.80;;
18503;SDS011;9381;54.244;10.074;2023-06-10T22:12:45;8.10;;;2.43;;
18503;SDS011;9381;54.244;10.074;2023-06-10T22:17:45;4.45;;;1.60;;
18503;SDS011;9381;54.244;10.074;2023-06-10T22:22:48;6.17;;;2.00;;
18503;SDS011;9381;54.244;10.074;2023-06-10T22:27:49;12.13;;;1.97;;
18503;SDS011;9381;54.244;10.074;2023-06-10T22:32:49;4.97;;;2.23;;
18503;SDS011;9381;54.244;10.074;2023-06-10T22:37:50;3.93;;;2.00;;
18503;SDS011;9381;54.244;10.074;2023-06-10T22:42:50;9.17;;;2.30;;
18503;SDS011;9381;54.244;10.074;2023-06-10T22:47:50;6.40;;;1.67;;
18503;SDS011;9381;54.244;10.074;2023-06-10T22:52:51;4.07;;;1.93;;
18503;SDS011;9381;54.244;10.074;2023-06-10T22:57:52;5.07;;;1.80;;
18503;SDS011;9381;54.244;10.074;2023-06-10T23:02:52;3.77;;;1.93;;
18503;SDS011;9381;54.244;10.074;2023-06-10T23:07:52;4.93;;;1.83;;
18503;SDS011;9381;54.244;10.074;2023-06-10T23:12:53;3.13;;;2.17;;
18503;SDS011;9381;54.244;10.074;2023-06-10T23:17:53;5.10;;;1.70;;
18503;SDS011;9381;54.244;10.074;2023-06-10T23:22:55;5.57;;;1.80;;
18503;SDS011;9381;54.244;10.074;2023-06-10T23:27:55;2.13;;;1.57;;
18503;SDS011;9381;54.244;10.074;2023-06-10T23:32:56;5.63;;;1.90;;
18503;SDS011;9381;54.244;10.074;2023-06-10T23:37:58;4.77;;;1.70;;
18503;SDS011;9381;54.244;10.074;2023-06-10T23:42:58;4.63;;;2.00;;
18503;SDS011;9381;54.244;10.074;2023-06-10T23:47:59;4.75;;;1.98;;
18503;SDS011;9381;54.244;10.074;2023-06-10T23:52:59;4.20;;;2.10;;
18503;SDS011;9381;54.244;10.074;2023-06-10T23:58:00;4.07;;;1.90;;
